Limehouse, South Carolina
Current Conditions -  °F | °C
As of 8:53 AM on Monday 24 Nov 2014 (Local Time) from KSAV Reporting Station
Overcast Overcast  
Wind Chill: 75°   Ceiling: 1500
Heat Index: 75°   Visibility: 9mi
Dew Point: 70°   Wind: 14mph
Humidity: 84%   Direction: 200°SSW
Pressure: 29.88"   Gusts: NA
Location:  32.2576°N, 81.057°W
Report Text: KSAV 241353Z 20012KT 9SM OVC015 24/21 A2988 RMK AO2 SLP118 BINOVC T02390211 $
Loading
Personal Weather Stations






























Interactive Weather Map New forecast layout! Learn more

10-Day Weather Forecast

Advertisements
Track Severe Weather on mobile